sensor_id;sensor_type;location;lat;lon;timestamp;P1;durP1;ratioP1;P2;durP2;ratioP2
25249;SDS011;13201;51.148;13.738;2022-08-19T00:01:20;12.53;;;7.97;;
25249;SDS011;13201;51.148;13.738;2022-08-19T00:03:46;9.90;;;7.60;;
25249;SDS011;13201;51.148;13.738;2022-08-19T00:06:12;10.73;;;7.80;;
25249;SDS011;13201;51.148;13.738;2022-08-19T00:08:39;10.55;;;8.32;;
25249;SDS011;13201;51.148;13.738;2022-08-19T00:11:04;11.83;;;8.57;;
25249;SDS011;13201;51.148;13.738;2022-08-19T00:13:31;9.90;;;7.77;;
25249;SDS011;13201;51.148;13.738;2022-08-19T00:15:57;10.88;;;8.50;;
25249;SDS011;13201;51.148;13.738;2022-08-19T00:18:23;11.68;;;8.68;;
25249;SDS011;13201;51.148;13.738;2022-08-19T00:20:49;10.20;;;8.23;;
25249;SDS011;13201;51.148;13.738;2022-08-19T00:23:15;12.60;;;8.63;;
25249;SDS011;13201;51.148;13.738;2022-08-19T00:25:41;11.60;;;8.57;;
25249;SDS011;13201;51.148;13.738;2022-08-19T00:28:07;11.63;;;8.88;;
25249;SDS011;13201;51.148;13.738;2022-08-19T00:30:33;11.07;;;8.30;;
25249;SDS011;13201;51.148;13.738;2022-08-19T00:32:58;12.10;;;8.85;;
25249;SDS011;13201;51.148;13.738;2022-08-19T00:35:24;10.02;;;8.32;;
25249;SDS011;13201;51.148;13.738;2022-08-19T00:37:52;12.73;;;8.88;;
25249;SDS011;13201;51.148;13.738;2022-08-19T00:40:18;12.82;;;9.18;;
25249;SDS011;13201;51.148;13.738;2022-08-19T00:42:44;13.15;;;8.55;;
25249;SDS011;13201;51.148;13.738;2022-08-19T00:45:20;14.27;;;9.43;;
25249;SDS011;13201;51.148;13.738;2022-08-19T00:47:47;13.60;;;9.10;;
25249;SDS011;13201;51.148;13.738;2022-08-19T00:50:15;12.23;;;8.80;;
25249;SDS011;13201;51.148;13.738;2022-08-19T00:52:45;15.75;;;9.65;;
25249;SDS011;13201;51.148;13.738;2022-08-19T00:55:15;13.73;;;9.63;;
25249;SDS011;13201;51.148;13.738;2022-08-19T00:57:45;13.85;;;9.60;;
25249;SDS011;13201;51.148;13.738;2022-08-19T01:00:17;14.30;;;9.32;;
25249;SDS011;13201;51.148;13.738;2022-08-19T01:02:44;11.73;;;9.02;;
25249;SDS011;13201;51.148;13.738;2022-08-19T01:05:14;13.77;;;9.60;;
25249;SDS011;13201;51.148;13.738;2022-08-19T01:32:20;15.15;;;11.10;;
25249;SDS011;13201;51.148;13.738;2022-08-19T01:34:46;16.48;;;11.98;;
25249;SDS011;13201;51.148;13.738;2022-08-19T01:37:12;16.73;;;12.48;;
25249;SDS011;13201;51.148;13.738;2022-08-19T01:39:39;15.38;;;11.25;;
25249;SDS011;13201;51.148;13.738;2022-08-19T01:42:07;17.00;;;11.75;;
25249;SDS011;13201;51.148;13.738;2022-08-19T01:44:36;15.85;;;11.90;;
25249;SDS011;13201;51.148;13.738;2022-08-19T01:47:02;16.27;;;11.68;;
25249;SDS011;13201;51.148;13.738;2022-08-19T01:49:28;18.47;;;11.93;;
25249;SDS011;13201;51.148;13.738;2022-08-19T01:51:54;14.68;;;11.50;;
25249;SDS011;13201;51.148;13.738;2022-08-19T01:54:21;21.70;;;11.57;;
25249;SDS011;13201;51.148;13.738;2022-08-19T01:56:48;17.27;;;11.05;;
25249;SDS011;13201;51.148;13.738;2022-08-19T02:01:42;17.30;;;11.95;;
25249;SDS011;13201;51.148;13.738;2022-08-19T02:04:08;18.02;;;11.55;;
25249;SDS011;13201;51.148;13.738;2022-08-19T02:06:33;16.23;;;11.88;;
25249;SDS011;13201;51.148;13.738;2022-08-19T02:08:59;17.98;;;11.32;;
25249;SDS011;13201;51.148;13.738;2022-08-19T02:11:30;15.27;;;11.13;;
25249;SDS011;13201;51.148;13.738;2022-08-19T02:13:58;14.10;;;10.95;;
25249;SDS011;13201;51.148;13.738;2022-08-19T02:16:26;15.68;;;11.52;;
25249;SDS011;13201;51.148;13.738;2022-08-19T02:18:52;19.10;;;11.63;;
25249;SDS011;13201;51.148;13.738;2022-08-19T02:21:19;17.48;;;11.82;;
25249;SDS011;13201;51.148;13.738;2022-08-19T02:23:46;17.75;;;11.45;;
25249;SDS011;13201;51.148;13.738;2022-08-19T02:26:12;15.83;;;11.20;;
25249;SDS011;13201;51.148;13.738;2022-08-19T02:28:39;17.13;;;10.33;;
25249;SDS011;13201;51.148;13.738;2022-08-19T02:31:13;14.63;;;10.70;;
25249;SDS011;13201;51.148;13.738;2022-08-19T02:33:42;15.10;;;11.48;;
25249;SDS011;13201;51.148;13.738;2022-08-19T02:36:09;15.70;;;11.30;;
25249;SDS011;13201;51.148;13.738;2022-08-19T02:38:36;14.45;;;10.38;;
25249;SDS011;13201;51.148;13.738;2022-08-19T02:41:06;16.90;;;11.23;;
25249;SDS011;13201;51.148;13.738;2022-08-19T02:43:36;15.30;;;11.10;;
25249;SDS011;13201;51.148;13.738;2022-08-19T02:46:19;17.10;;;11.82;;
25249;SDS011;13201;51.148;13.738;2022-08-19T02:49:04;14.27;;;10.73;;
25249;SDS011;13201;51.148;13.738;2022-08-19T02:51:39;14.82;;;10.80;;
25249;SDS011;13201;51.148;13.738;2022-08-19T02:54:09;15.40;;;10.70;;
25249;SDS011;13201;51.148;13.738;2022-08-19T02:56:38;16.35;;;11.90;;
25249;SDS011;13201;51.148;13.738;2022-08-19T02:59:05;15.75;;;11.23;;
25249;SDS011;13201;51.148;13.738;2022-08-19T03:01:37;19.73;;;12.10;;
25249;SDS011;13201;51.148;13.738;2022-08-19T03:04:05;16.15;;;11.25;;
25249;SDS011;13201;51.148;13.738;2022-08-19T03:06:34;18.65;;;11.55;;
25249;SDS011;13201;51.148;13.738;2022-08-19T03:09:02;14.85;;;11.38;;
25249;SDS011;13201;51.148;13.738;2022-08-19T03:11:28;18.67;;;12.20;;
25249;SDS011;13201;51.148;13.738;2022-08-19T03:13:56;14.95;;;11.52;;
25249;SDS011;13201;51.148;13.738;2022-08-19T03:16:23;18.52;;;12.15;;
25249;SDS011;13201;51.148;13.738;2022-08-19T03:18:51;16.85;;;11.98;;
25249;SDS011;13201;51.148;13.738;2022-08-19T03:21:19;16.73;;;11.55;;
25249;SDS011;13201;51.148;13.738;2022-08-19T03:23:47;16.13;;;11.50;;
25249;SDS011;13201;51.148;13.738;2022-08-19T03:26:12;18.63;;;12.00;;
25249;SDS011;13201;51.148;13.738;2022-08-19T03:28:39;18.25;;;11.77;;
25249;SDS011;13201;51.148;13.738;2022-08-19T03:31:08;16.95;;;11.93;;
25249;SDS011;13201;51.148;13.738;2022-08-19T03:33:36;16.15;;;12.45;;
25249;SDS011;13201;51.148;13.738;2022-08-19T03:36:07;15.50;;;12.07;;
25249;SDS011;13201;51.148;13.738;2022-08-19T03:38:36;15.73;;;11.82;;
25249;SDS011;13201;51.148;13.738;2022-08-19T03:41:05;16.88;;;11.82;;
25249;SDS011;13201;51.148;13.738;2022-08-19T03:43:35;15.80;;;11.05;;
25249;SDS011;13201;51.148;13.738;2022-08-19T03:46:12;16.67;;;11.45;;
25249;SDS011;13201;51.148;13.738;2022-08-19T03:48:39;17.40;;;11.80;;
25249;SDS011;13201;51.148;13.738;2022-08-19T03:51:06;17.80;;;11.88;;
25249;SDS011;13201;51.148;13.738;2022-08-19T03:53:33;16.55;;;12.13;;
25249;SDS011;13201;51.148;13.738;2022-08-19T03:58:26;16.45;;;12.00;;
25249;SDS011;13201;51.148;13.738;2022-08-19T04:00:56;17.08;;;11.98;;
25249;SDS011;13201;51.148;13.738;2022-08-19T04:03:22;19.08;;;12.25;;
25249;SDS011;13201;51.148;13.738;2022-08-19T04:05:49;14.85;;;12.02;;
25249;SDS011;13201;51.148;13.738;2022-08-19T04:08:14;16.13;;;11.70;;
25249;SDS011;13201;51.148;13.738;2022-08-19T04:10:45;16.85;;;12.18;;
25249;SDS011;13201;51.148;13.738;2022-08-19T04:13:12;16.25;;;11.43;;
25249;SDS011;13201;51.148;13.738;2022-08-19T04:15:39;15.98;;;12.05;;
25249;SDS011;13201;51.148;13.738;2022-08-19T04:18:06;16.63;;;12.00;;
25249;SDS011;13201;51.148;13.738;2022-08-19T04:20:39;17.67;;;11.95;;
25249;SDS011;13201;51.148;13.738;2022-08-19T04:23:06;16.52;;;12.05;;
25249;SDS011;13201;51.148;13.738;2022-08-19T04:25:38;14.60;;;12.07;;
25249;SDS011;13201;51.148;13.738;2022-08-19T04:28:05;14.93;;;11.32;;
25249;SDS011;13201;51.148;13.738;2022-08-19T04:30:37;17.65;;;11.95;;
25249;SDS011;13201;51.148;13.738;2022-08-19T04:33:07;17.48;;;13.07;;
25249;SDS011;13201;51.148;13.738;2022-08-19T04:35:37;16.27;;;11.93;;
25249;SDS011;13201;51.148;13.738;2022-08-19T04:38:07;18.30;;;12.13;;
25249;SDS011;13201;51.148;13.738;2022-08-19T04:40:33;17.77;;;12.40;;
25249;SDS011;13201;51.148;13.738;2022-08-19T04:43:23;18.88;;;12.60;;
25249;SDS011;13201;51.148;13.738;2022-08-19T04:45:48;16.83;;;12.23;;
25249;SDS011;13201;51.148;13.738;2022-08-19T04:48:15;19.25;;;12.43;;
25249;SDS011;13201;51.148;13.738;2022-08-19T04:50:42;16.42;;;11.82;;
25249;SDS011;13201;51.148;13.738;2022-08-19T04:53:08;18.67;;;12.23;;
25249;SDS011;13201;51.148;13.738;2022-08-19T04:55:34;19.50;;;12.50;;
25249;SDS011;13201;51.148;13.738;2022-08-19T04:58:02;17.10;;;11.80;;
25249;SDS011;13201;51.148;13.738;2022-08-19T05:00:28;15.82;;;11.93;;
25249;SDS011;13201;51.148;13.738;2022-08-19T05:02:54;15.55;;;11.45;;
25249;SDS011;13201;51.148;13.738;2022-08-19T05:05:20;20.20;;;11.95;;
25249;SDS011;13201;51.148;13.738;2022-08-19T05:07:45;15.57;;;11.13;;
25249;SDS011;13201;51.148;13.738;2022-08-19T05:10:11;13.68;;;10.45;;
25249;SDS011;13201;51.148;13.738;2022-08-19T05:12:37;15.70;;;11.30;;
25249;SDS011;13201;51.148;13.738;2022-08-19T05:15:04;16.63;;;11.13;;
25249;SDS011;13201;51.148;13.738;2022-08-19T05:17:31;15.52;;;11.35;;
25249;SDS011;13201;51.148;13.738;2022-08-19T05:19:57;17.08;;;11.77;;
25249;SDS011;13201;51.148;13.738;2022-08-19T05:22:43;16.38;;;11.77;;
25249;SDS011;13201;51.148;13.738;2022-08-19T05:25:12;16.40;;;11.75;;
25249;SDS011;13201;51.148;13.738;2022-08-19T05:27:39;17.63;;;11.75;;
25249;SDS011;13201;51.148;13.738;2022-08-19T05:30:06;17.63;;;11.45;;
25249;SDS011;13201;51.148;13.738;2022-08-19T05:32:32;17.77;;;11.65;;
25249;SDS011;13201;51.148;13.738;2022-08-19T05:34:58;16.88;;;12.07;;
25249;SDS011;13201;51.148;13.738;2022-08-19T05:37:24;16.27;;;11.55;;
25249;SDS011;13201;51.148;13.738;2022-08-19T05:39:52;17.38;;;11.68;;
25249;SDS011;13201;51.148;13.738;2022-08-19T05:42:19;15.20;;;11.50;;
25249;SDS011;13201;51.148;13.738;2022-08-19T05:44:47;15.82;;;11.85;;
25249;SDS011;13201;51.148;13.738;2022-08-19T05:47:14;18.88;;;12.45;;
25249;SDS011;13201;51.148;13.738;2022-08-19T05:49:40;15.77;;;11.43;;
25249;SDS011;13201;51.148;13.738;2022-08-19T05:52:08;18.15;;;12.00;;
25249;SDS011;13201;51.148;13.738;2022-08-19T05:54:36;16.15;;;12.07;;
25249;SDS011;13201;51.148;13.738;2022-08-19T05:57:05;17.45;;;11.02;;
25249;SDS011;13201;51.148;13.738;2022-08-19T05:59:31;15.98;;;11.25;;
25249;SDS011;13201;51.148;13.738;2022-08-19T06:02:00;16.77;;;11.40;;
25249;SDS011;13201;51.148;13.738;2022-08-19T06:04:26;18.52;;;11.10;;
25249;SDS011;13201;51.148;13.738;2022-08-19T06:06:52;14.05;;;10.40;;
25249;SDS011;13201;51.148;13.738;2022-08-19T06:09:19;12.73;;;9.95;;
25249;SDS011;13201;51.148;13.738;2022-08-19T06:11:50;16.50;;;11.38;;
25249;SDS011;13201;51.148;13.738;2022-08-19T06:14:19;11.38;;;9.27;;
25249;SDS011;13201;51.148;13.738;2022-08-19T06:16:47;12.13;;;9.07;;
25249;SDS011;13201;51.148;13.738;2022-08-19T06:19:16;13.55;;;9.63;;
25249;SDS011;13201;51.148;13.738;2022-08-19T06:21:44;15.68;;;9.15;;
25249;SDS011;13201;51.148;13.738;2022-08-19T06:24:13;10.65;;;7.85;;
25249;SDS011;13201;51.148;13.738;2022-08-19T06:26:41;12.70;;;7.95;;
25249;SDS011;13201;51.148;13.738;2022-08-19T06:29:09;10.18;;;7.85;;
25249;SDS011;13201;51.148;13.738;2022-08-19T06:31:36;10.55;;;8.05;;
25249;SDS011;13201;51.148;13.738;2022-08-19T06:34:05;9.52;;;7.30;;
25249;SDS011;13201;51.148;13.738;2022-08-19T06:36:32;10.68;;;8.20;;
25249;SDS011;13201;51.148;13.738;2022-08-19T06:39:01;11.93;;;7.95;;
25249;SDS011;13201;51.148;13.738;2022-08-19T06:41:29;10.15;;;7.28;;
25249;SDS011;13201;51.148;13.738;2022-08-19T06:43:57;10.23;;;7.68;;
25249;SDS011;13201;51.148;13.738;2022-08-19T06:46:23;11.90;;;7.88;;
25249;SDS011;13201;51.148;13.738;2022-08-19T06:48:49;9.80;;;7.72;;
25249;SDS011;13201;51.148;13.738;2022-08-19T06:51:18;12.35;;;7.97;;
25249;SDS011;13201;51.148;13.738;2022-08-19T06:53:45;11.70;;;8.70;;
25249;SDS011;13201;51.148;13.738;2022-08-19T06:56:15;12.68;;;8.50;;
25249;SDS011;13201;51.148;13.738;2022-08-19T06:58:42;12.75;;;8.32;;
25249;SDS011;13201;51.148;13.738;2022-08-19T07:01:08;12.02;;;8.40;;
25249;SDS011;13201;51.148;13.738;2022-08-19T07:03:34;15.67;;;9.47;;
25249;SDS011;13201;51.148;13.738;2022-08-19T07:06:05;12.55;;;9.40;;
25249;SDS011;13201;51.148;13.738;2022-08-19T07:08:33;14.73;;;9.80;;
25249;SDS011;13201;51.148;13.738;2022-08-19T07:10:59;14.87;;;10.23;;
25249;SDS011;13201;51.148;13.738;2022-08-19T07:13:25;13.50;;;10.40;;
25249;SDS011;13201;51.148;13.738;2022-08-19T07:15:51;17.73;;;11.55;;
25249;SDS011;13201;51.148;13.738;2022-08-19T07:18:17;16.27;;;9.90;;
25249;SDS011;13201;51.148;13.738;2022-08-19T07:20:44;14.38;;;10.10;;
25249;SDS011;13201;51.148;13.738;2022-08-19T07:23:10;16.13;;;10.73;;
25249;SDS011;13201;51.148;13.738;2022-08-19T07:25:37;15.88;;;11.27;;
25249;SDS011;13201;51.148;13.738;2022-08-19T07:28:03;17.15;;;11.73;;
25249;SDS011;13201;51.148;13.738;2022-08-19T07:30:30;16.10;;;11.63;;
25249;SDS011;13201;51.148;13.738;2022-08-19T07:32:56;15.30;;;11.90;;
25249;SDS011;13201;51.148;13.738;2022-08-19T07:35:22;17.03;;;11.00;;
25249;SDS011;13201;51.148;13.738;2022-08-19T07:37:48;17.23;;;11.10;;
25249;SDS011;13201;51.148;13.738;2022-08-19T07:40:14;14.25;;;10.90;;
25249;SDS011;13201;51.148;13.738;2022-08-19T07:42:40;18.45;;;11.57;;
25249;SDS011;13201;51.148;13.738;2022-08-19T07:45:07;15.13;;;11.23;;
25249;SDS011;13201;51.148;13.738;2022-08-19T07:47:35;15.07;;;10.50;;
25249;SDS011;13201;51.148;13.738;2022-08-19T07:50:00;16.52;;;11.40;;
25249;SDS011;13201;51.148;13.738;2022-08-19T07:52:29;15.05;;;10.57;;
25249;SDS011;13201;51.148;13.738;2022-08-19T07:54:55;15.40;;;10.60;;
25249;SDS011;13201;51.148;13.738;2022-08-19T07:57:20;15.82;;;10.68;;
25249;SDS011;13201;51.148;13.738;2022-08-19T07:59:46;17.85;;;11.02;;
25249;SDS011;13201;51.148;13.738;2022-08-19T08:02:12;17.70;;;10.85;;
25249;SDS011;13201;51.148;13.738;2022-08-19T08:04:37;13.52;;;10.18;;
25249;SDS011;13201;51.148;13.738;2022-08-19T08:07:22;14.30;;;9.73;;
25249;SDS011;13201;51.148;13.738;2022-08-19T08:10:06;13.75;;;10.50;;
25249;SDS011;13201;51.148;13.738;2022-08-19T08:12:35;16.25;;;10.90;;
25249;SDS011;13201;51.148;13.738;2022-08-19T08:15:07;14.85;;;10.45;;
25249;SDS011;13201;51.148;13.738;2022-08-19T08:17:41;13.88;;;9.57;;
25249;SDS011;13201;51.148;13.738;2022-08-19T08:20:08;13.55;;;9.85;;
25249;SDS011;13201;51.148;13.738;2022-08-19T08:22:34;15.38;;;10.68;;
25249;SDS011;13201;51.148;13.738;2022-08-19T08:25:20;14.50;;;10.38;;
25249;SDS011;13201;51.148;13.738;2022-08-19T08:27:47;14.35;;;9.73;;
25249;SDS011;13201;51.148;13.738;2022-08-19T08:32:46;14.23;;;9.98;;
25249;SDS011;13201;51.148;13.738;2022-08-19T08:35:14;16.40;;;10.53;;
25249;SDS011;13201;51.148;13.738;2022-08-19T08:37:42;14.77;;;10.25;;
25249;SDS011;13201;51.148;13.738;2022-08-19T08:40:12;14.63;;;9.77;;
25249;SDS011;13201;51.148;13.738;2022-08-19T08:42:48;14.65;;;10.57;;
25249;SDS011;13201;51.148;13.738;2022-08-19T08:45:25;13.98;;;10.40;;
25249;SDS011;13201;51.148;13.738;2022-08-19T08:47:53;15.02;;;10.70;;
25249;SDS011;13201;51.148;13.738;2022-08-19T08:50:24;15.82;;;10.80;;
25249;SDS011;13201;51.148;13.738;2022-08-19T08:53:00;13.75;;;10.50;;
25249;SDS011;13201;51.148;13.738;2022-08-19T08:55:27;15.70;;;10.52;;
25249;SDS011;13201;51.148;13.738;2022-08-19T09:00:32;18.17;;;10.52;;
25249;SDS011;13201;51.148;13.738;2022-08-19T09:03:00;14.60;;;10.55;;
25249;SDS011;13201;51.148;13.738;2022-08-19T09:05:33;14.93;;;10.57;;
25249;SDS011;13201;51.148;13.738;2022-08-19T09:10:51;16.63;;;10.90;;
25249;SDS011;13201;51.148;13.738;2022-08-19T09:21:12;15.25;;;10.65;;
25249;SDS011;13201;51.148;13.738;2022-08-19T09:23:38;16.85;;;10.45;;
25249;SDS011;13201;51.148;13.738;2022-08-19T09:26:08;16.20;;;11.03;;
25249;SDS011;13201;51.148;13.738;2022-08-19T09:28:38;15.57;;;10.85;;
25249;SDS011;13201;51.148;13.738;2022-08-19T09:31:11;15.35;;;9.82;;
25249;SDS011;13201;51.148;13.738;2022-08-19T09:33:41;12.45;;;10.05;;
25249;SDS011;13201;51.148;13.738;2022-08-19T09:36:10;16.75;;;10.60;;
25249;SDS011;13201;51.148;13.738;2022-08-19T09:38:38;12.45;;;10.02;;
25249;SDS011;13201;51.148;13.738;2022-08-19T09:41:11;13.40;;;10.25;;
25249;SDS011;13201;51.148;13.738;2022-08-19T09:43:39;14.90;;;10.27;;
25249;SDS011;13201;51.148;13.738;2022-08-19T09:46:07;13.02;;;9.93;;
25249;SDS011;13201;51.148;13.738;2022-08-19T09:48:37;13.02;;;9.20;;
25249;SDS011;13201;51.148;13.738;2022-08-19T09:51:08;12.23;;;9.65;;
25249;SDS011;13201;51.148;13.738;2022-08-19T09:53:35;16.17;;;10.50;;
25249;SDS011;13201;51.148;13.738;2022-08-19T09:56:03;13.38;;;9.90;;
25249;SDS011;13201;51.148;13.738;2022-08-19T09:58:30;13.10;;;9.68;;
25249;SDS011;13201;51.148;13.738;2022-08-19T10:00:57;12.35;;;8.98;;
25249;SDS011;13201;51.148;13.738;2022-08-19T10:03:24;13.95;;;9.70;;
25249;SDS011;13201;51.148;13.738;2022-08-19T10:05:51;12.73;;;9.95;;
25249;SDS011;13201;51.148;13.738;2022-08-19T10:08:18;12.70;;;9.60;;
25249;SDS011;13201;51.148;13.738;2022-08-19T10:10:46;12.73;;;9.50;;
25249;SDS011;13201;51.148;13.738;2022-08-19T10:13:14;12.25;;;10.05;;
25249;SDS011;13201;51.148;13.738;2022-08-19T10:15:40;13.30;;;9.80;;
25249;SDS011;13201;51.148;13.738;2022-08-19T10:18:07;12.87;;;9.50;;
25249;SDS011;13201;51.148;13.738;2022-08-19T10:20:33;13.02;;;9.40;;
25249;SDS011;13201;51.148;13.738;2022-08-19T10:23:00;13.05;;;9.48;;
25249;SDS011;13201;51.148;13.738;2022-08-19T10:25:27;12.10;;;9.43;;
25249;SDS011;13201;51.148;13.738;2022-08-19T10:27:53;14.57;;;9.65;;
25249;SDS011;13201;51.148;13.738;2022-08-19T10:30:19;15.23;;;10.57;;
25249;SDS011;13201;51.148;13.738;2022-08-19T10:32:45;13.82;;;9.57;;
25249;SDS011;13201;51.148;13.738;2022-08-19T10:35:11;13.50;;;10.30;;
25249;SDS011;13201;51.148;13.738;2022-08-19T10:37:38;13.10;;;9.73;;
25249;SDS011;13201;51.148;13.738;2022-08-19T10:40:05;13.65;;;9.95;;
25249;SDS011;13201;51.148;13.738;2022-08-19T10:42:32;13.75;;;9.88;;
25249;SDS011;13201;51.148;13.738;2022-08-19T10:44:58;13.80;;;10.00;;
25249;SDS011;13201;51.148;13.738;2022-08-19T10:47:24;13.60;;;9.73;;
25249;SDS011;13201;51.148;13.738;2022-08-19T10:49:49;11.95;;;9.07;;
25249;SDS011;13201;51.148;13.738;2022-08-19T10:52:34;11.52;;;8.80;;
25249;SDS011;13201;51.148;13.738;2022-08-19T10:55:00;12.43;;;9.05;;
25249;SDS011;13201;51.148;13.738;2022-08-19T10:57:45;11.15;;;8.73;;
25249;SDS011;13201;51.148;13.738;2022-08-19T11:00:11;13.52;;;9.57;;
25249;SDS011;13201;51.148;13.738;2022-08-19T11:02:38;16.15;;;10.73;;
25249;SDS011;13201;51.148;13.738;2022-08-19T11:05:04;15.63;;;10.10;;
25249;SDS011;13201;51.148;13.738;2022-08-19T11:07:31;15.93;;;11.35;;
25249;SDS011;13201;51.148;13.738;2022-08-19T11:09:57;14.88;;;9.98;;
25249;SDS011;13201;51.148;13.738;2022-08-19T11:12:23;12.82;;;10.13;;
25249;SDS011;13201;51.148;13.738;2022-08-19T11:14:49;13.63;;;10.23;;
25249;SDS011;13201;51.148;13.738;2022-08-19T11:17:15;15.52;;;10.07;;
25249;SDS011;13201;51.148;13.738;2022-08-19T11:19:40;14.77;;;10.13;;
25249;SDS011;13201;51.148;13.738;2022-08-19T11:22:08;12.95;;;9.70;;
25249;SDS011;13201;51.148;13.738;2022-08-19T11:24:35;13.98;;;10.20;;
25249;SDS011;13201;51.148;13.738;2022-08-19T11:27:02;14.95;;;10.00;;
25249;SDS011;13201;51.148;13.738;2022-08-19T11:29:30;15.00;;;10.32;;
25249;SDS011;13201;51.148;13.738;2022-08-19T11:31:57;13.57;;;10.50;;
25249;SDS011;13201;51.148;13.738;2022-08-19T11:34:24;14.52;;;10.27;;
25249;SDS011;13201;51.148;13.738;2022-08-19T11:36:52;14.40;;;10.40;;
25249;SDS011;13201;51.148;13.738;2022-08-19T11:39:21;16.45;;;9.57;;
25249;SDS011;13201;51.148;13.738;2022-08-19T11:41:47;14.88;;;10.68;;
25249;SDS011;13201;51.148;13.738;2022-08-19T11:44:13;19.73;;;10.90;;
25249;SDS011;13201;51.148;13.738;2022-08-19T11:46:40;15.73;;;10.88;;
25249;SDS011;13201;51.148;13.738;2022-08-19T11:49:08;16.52;;;12.48;;
25249;SDS011;13201;51.148;13.738;2022-08-19T11:51:34;17.48;;;12.73;;
25249;SDS011;13201;51.148;13.738;2022-08-19T11:54:00;18.05;;;12.60;;
25249;SDS011;13201;51.148;13.738;2022-08-19T11:56:26;16.20;;;11.83;;
25249;SDS011;13201;51.148;13.738;2022-08-19T12:01:20;22.60;;;15.17;;
25249;SDS011;13201;51.148;13.738;2022-08-19T12:03:47;25.25;;;15.57;;
25249;SDS011;13201;51.148;13.738;2022-08-19T12:06:21;27.23;;;17.05;;
25249;SDS011;13201;51.148;13.738;2022-08-19T12:08:53;28.25;;;17.95;;
25249;SDS011;13201;51.148;13.738;2022-08-19T12:11:22;28.20;;;17.50;;
25249;SDS011;13201;51.148;13.738;2022-08-19T12:13:48;30.57;;;18.17;;
25249;SDS011;13201;51.148;13.738;2022-08-19T12:16:16;29.70;;;18.20;;
25249;SDS011;13201;51.148;13.738;2022-08-19T12:18:43;36.30;;;18.83;;
25249;SDS011;13201;51.148;13.738;2022-08-19T12:21:12;27.48;;;18.15;;
25249;SDS011;13201;51.148;13.738;2022-08-19T12:23:39;29.15;;;17.42;;
25249;SDS011;13201;51.148;13.738;2022-08-19T12:28:31;27.70;;;16.70;;
25249;SDS011;13201;51.148;13.738;2022-08-19T12:30:57;27.30;;;17.47;;
25249;SDS011;13201;51.148;13.738;2022-08-19T12:33:23;29.23;;;17.95;;
25249;SDS011;13201;51.148;13.738;2022-08-19T12:35:52;27.27;;;17.42;;
25249;SDS011;13201;51.148;13.738;2022-08-19T12:38:18;30.95;;;17.92;;
25249;SDS011;13201;51.148;13.738;2022-08-19T12:40:47;26.73;;;16.47;;
25249;SDS011;13201;51.148;13.738;2022-08-19T12:43:14;23.02;;;15.75;;
25249;SDS011;13201;51.148;13.738;2022-08-19T12:45:41;29.67;;;16.63;;
25249;SDS011;13201;51.148;13.738;2022-08-19T12:50:33;24.53;;;16.63;;
25249;SDS011;13201;51.148;13.738;2022-08-19T12:52:58;25.38;;;15.15;;
25249;SDS011;13201;51.148;13.738;2022-08-19T12:55:24;25.15;;;15.23;;
25249;SDS011;13201;51.148;13.738;2022-08-19T12:57:50;24.50;;;14.55;;
25249;SDS011;13201;51.148;13.738;2022-08-19T13:00:17;25.92;;;14.90;;
25249;SDS011;13201;51.148;13.738;2022-08-19T13:02:46;25.05;;;15.90;;
25249;SDS011;13201;51.148;13.738;2022-08-19T13:05:16;28.63;;;16.10;;
25249;SDS011;13201;51.148;13.738;2022-08-19T13:07:47;26.35;;;15.23;;
25249;SDS011;13201;51.148;13.738;2022-08-19T13:10:15;23.15;;;14.48;;
25249;SDS011;13201;51.148;13.738;2022-08-19T13:12:43;27.90;;;16.52;;
25249;SDS011;13201;51.148;13.738;2022-08-19T13:15:12;26.02;;;15.45;;
25249;SDS011;13201;51.148;13.738;2022-08-19T13:17:38;22.42;;;15.23;;
25249;SDS011;13201;51.148;13.738;2022-08-19T13:20:05;24.17;;;15.20;;
25249;SDS011;13201;51.148;13.738;2022-08-19T13:22:33;22.15;;;14.43;;
25249;SDS011;13201;51.148;13.738;2022-08-19T13:25:00;25.40;;;14.75;;
25249;SDS011;13201;51.148;13.738;2022-08-19T13:27:27;22.05;;;14.60;;
25249;SDS011;13201;51.148;13.738;2022-08-19T13:29:52;22.60;;;15.33;;
25249;SDS011;13201;51.148;13.738;2022-08-19T13:32:36;22.30;;;15.02;;
25249;SDS011;13201;51.148;13.738;2022-08-19T13:35:20;22.65;;;14.30;;
25249;SDS011;13201;51.148;13.738;2022-08-19T13:37:46;24.08;;;15.27;;
25249;SDS011;13201;51.148;13.738;2022-08-19T13:40:16;21.87;;;15.47;;
25249;SDS011;13201;51.148;13.738;2022-08-19T13:42:46;21.73;;;15.25;;
25249;SDS011;13201;51.148;13.738;2022-08-19T13:45:15;23.38;;;15.20;;
25249;SDS011;13201;51.148;13.738;2022-08-19T13:47:44;22.33;;;14.25;;
25249;SDS011;13201;51.148;13.738;2022-08-19T13:50:15;23.88;;;15.63;;
25249;SDS011;13201;51.148;13.738;2022-08-19T13:52:43;22.83;;;14.95;;
25249;SDS011;13201;51.148;13.738;2022-08-19T13:55:10;26.13;;;16.67;;
25249;SDS011;13201;51.148;13.738;2022-08-19T13:57:37;26.80;;;17.48;;
25249;SDS011;13201;51.148;13.738;2022-08-19T14:00:08;28.33;;;17.55;;
25249;SDS011;13201;51.148;13.738;2022-08-19T14:02:36;26.55;;;17.35;;
25249;SDS011;13201;51.148;13.738;2022-08-19T14:05:04;25.35;;;17.42;;
25249;SDS011;13201;51.148;13.738;2022-08-19T14:07:31;27.67;;;18.58;;
25249;SDS011;13201;51.148;13.738;2022-08-19T14:09:57;28.48;;;18.10;;
25249;SDS011;13201;51.148;13.738;2022-08-19T14:12:22;28.45;;;18.40;;
25249;SDS011;13201;51.148;13.738;2022-08-19T14:14:48;29.45;;;18.23;;
25249;SDS011;13201;51.148;13.738;2022-08-19T14:17:14;31.80;;;19.60;;
25249;SDS011;13201;51.148;13.738;2022-08-19T14:19:40;28.00;;;19.13;;
25249;SDS011;13201;51.148;13.738;2022-08-19T14:22:06;30.15;;;18.25;;
25249;SDS011;13201;51.148;13.738;2022-08-19T14:24:31;28.13;;;18.60;;
25249;SDS011;13201;51.148;13.738;2022-08-19T14:26:57;27.05;;;17.98;;
25249;SDS011;13201;51.148;13.738;2022-08-19T14:29:23;30.73;;;18.33;;
25249;SDS011;13201;51.148;13.738;2022-08-19T14:31:49;26.63;;;18.05;;
25249;SDS011;13201;51.148;13.738;2022-08-19T14:34:15;25.52;;;16.77;;
25249;SDS011;13201;51.148;13.738;2022-08-19T14:36:40;27.08;;;17.23;;
25249;SDS011;13201;51.148;13.738;2022-08-19T14:39:06;27.42;;;17.30;;
25249;SDS011;13201;51.148;13.738;2022-08-19T14:41:34;24.73;;;15.88;;
25249;SDS011;13201;51.148;13.738;2022-08-19T14:43:59;24.52;;;15.95;;
25249;SDS011;13201;51.148;13.738;2022-08-19T14:46:26;26.25;;;17.27;;
25249;SDS011;13201;51.148;13.738;2022-08-19T14:48:53;26.55;;;16.98;;
25249;SDS011;13201;51.148;13.738;2022-08-19T14:51:20;23.60;;;16.80;;
25249;SDS011;13201;51.148;13.738;2022-08-19T14:53:48;25.55;;;15.95;;
25249;SDS011;13201;51.148;13.738;2022-08-19T14:56:15;23.35;;;16.75;;
25249;SDS011;13201;51.148;13.738;2022-08-19T14:58:43;27.27;;;16.55;;
25249;SDS011;13201;51.148;13.738;2022-08-19T15:01:10;22.70;;;16.38;;
25249;SDS011;13201;51.148;13.738;2022-08-19T15:03:37;25.02;;;15.85;;
25249;SDS011;13201;51.148;13.738;2022-08-19T15:06:05;22.42;;;15.43;;
25249;SDS011;13201;51.148;13.738;2022-08-19T15:08:32;23.57;;;16.17;;